Time;durP1;ratioP1;P1;durP2;ratioP2;P2;SDS_P1;SDS_P2;PMS_P1;PMS_P2;Temp;Humidity;BMP_temperature;BMP_pressure;BME280_temperature;BME280_humidity;BME280_pressure;Samples;Min_cycle;Max_cycle;Signal;HPM_P1;HPM_P2
2022/07/18 00:00:10;;;;;;;4.18;1.42;;;14.90;99.90;;;;;;5018515;28;20194;-88
2022/07/18 00:02:35;;;;;;;5.15;1.50;;;14.90;99.90;;;;;;5018563;28;20163;-87
2022/07/18 00:05:01;;;;;;;3.03;1.73;;;14.90;99.90;;;;;;5017006;28;20182;-88
2022/07/18 00:07:27;;;;;;;1.70;1.17;;;14.90;99.90;;;;;;5013385;28;20724;-87
2022/07/18 00:09:54;;;;;;;2.70;1.40;;;14.90;99.90;;;;;;4997167;28;20618;-87
2022/07/18 00:12:19;;;;;;;5.05;1.27;;;14.90;99.90;;;;;;4998169;28;20245;-88
2022/07/18 00:14:45;;;;;;;2.50;1.20;;;14.80;99.90;;;;;;4997289;28;20597;-88
2022/07/18 00:17:11;;;;;;;5.70;1.60;;;14.70;99.90;;;;;;4998448;28;20180;-86
2022/07/18 00:19:38;;;;;;;3.33;1.40;;;14.70;99.90;;;;;;4996992;28;20171;-87
2022/07/18 00:22:05;;;;;;;2.75;1.48;;;14.70;99.90;;;;;;4997287;28;20176;-87
2022/07/18 00:24:31;;;;;;;3.78;1.42;;;14.80;99.90;;;;;;4997599;28;20183;-87
2022/07/18 00:26:57;;;;;;;3.28;1.40;;;14.70;99.90;;;;;;4996557;28;20271;-88
2022/07/18 00:29:25;;;;;;;3.33;1.30;;;14.60;99.90;;;;;;4996789;28;20613;-88
2022/07/18 00:31:50;;;;;;;5.95;1.30;;;14.60;99.90;;;;;;4996541;28;20222;-87
2022/07/18 00:34:16;;;;;;;2.92;1.30;;;14.60;99.90;;;;;;4996535;28;20180;-88
2022/07/18 00:36:42;;;;;;;5.57;1.40;;;14.50;99.90;;;;;;4996407;28;20613;-87
2022/07/18 00:39:09;;;;;;;2.67;1.20;;;14.40;99.90;;;;;;4997750;28;20227;-88
2022/07/18 00:41:34;;;;;;;3.70;1.55;;;14.40;99.90;;;;;;4996934;28;20282;-88
2022/07/18 00:44:00;;;;;;;3.00;1.27;;;14.50;99.90;;;;;;4996971;28;20266;-87
2022/07/18 00:46:28;;;;;;;4.35;1.58;;;14.40;99.90;;;;;;4997839;28;20222;-88
2022/07/18 00:48:54;;;;;;;3.85;1.30;;;14.40;99.90;;;;;;4998094;28;20172;-89
2022/07/18 00:51:21;;;;;;;2.10;1.20;;;14.30;99.90;;;;;;4996848;28;20211;-88
2022/07/18 00:53:48;;;;;;;3.63;1.40;;;14.30;99.90;;;;;;4996536;28;20187;-88
2022/07/18 00:56:18;;;;;;;4.10;1.40;;;14.30;99.90;;;;;;4996317;28;20180;-88
2022/07/18 00:58:43;;;;;;;2.50;1.30;;;14.20;99.90;;;;;;4996786;28;20187;-88
2022/07/18 01:03:55;;;;;;;3.92;1.10;;;14.20;99.90;;;;;;4997659;28;20657;-88
2022/07/18 01:06:21;;;;;;;4.43;1.95;;;14.10;99.90;;;;;;4997448;28;20168;-87
2022/07/18 01:08:47;;;;;;;2.72;1.20;;;14.10;99.90;;;;;;4994756;28;20184;-88
2022/07/18 01:11:13;;;;;;;4.43;1.38;;;14.00;99.90;;;;;;4997465;28;20362;-87
2022/07/18 01:13:39;;;;;;;3.78;1.45;;;14.00;99.90;;;;;;4996376;28;20246;-87
2022/07/18 01:16:06;;;;;;;3.78;1.30;;;14.00;99.90;;;;;;4996098;28;20176;-87
2022/07/18 01:18:32;;;;;;;2.88;1.20;;;14.00;99.90;;;;;;4996100;28;20237;-87
2022/07/18 01:20:57;;;;;;;3.80;1.42;;;13.90;99.90;;;;;;4995915;28;20671;-88
2022/07/18 01:23:23;;;;;;;2.65;1.38;;;13.90;99.90;;;;;;4995771;28;20188;-87
2022/07/18 01:25:49;;;;;;;3.60;1.27;;;13.90;99.90;;;;;;4995957;28;20246;-87
2022/07/18 01:28:15;;;;;;;6.78;1.33;;;13.90;99.90;;;;;;4996798;28;20180;-86
2022/07/18 01:30:41;;;;;;;3.78;1.40;;;13.90;99.90;;;;;;4995653;28;20611;-88
2022/07/18 01:33:07;;;;;;;5.45;1.40;;;13.90;99.90;;;;;;4995876;28;20191;-87
2022/07/18 01:35:33;;;;;;;3.28;1.33;;;13.90;99.90;;;;;;4995662;28;20603;-88
2022/07/18 01:38:01;;;;;;;3.25;1.20;;;13.90;99.90;;;;;;4996449;28;20305;-87
2022/07/18 01:40:33;;;;;;;4.07;1.33;;;13.90;99.90;;;;;;4996938;28;20180;-88
2022/07/18 01:42:59;;;;;;;3.75;1.30;;;13.90;99.90;;;;;;4995058;28;20184;-88
2022/07/18 01:45:25;;;;;;;3.25;1.27;;;13.90;99.90;;;;;;4983032;28;20508;-88
2022/07/18 01:47:51;;;;;;;5.35;1.50;;;13.90;99.90;;;;;;4992164;28;20197;-88
2022/07/18 01:50:17;;;;;;;2.35;1.27;;;13.80;99.90;;;;;;4978145;28;20177;-88
2022/07/18 01:52:43;;;;;;;6.97;1.42;;;13.80;99.90;;;;;;4995486;28;20202;-88
2022/07/18 01:55:09;;;;;;;3.60;1.45;;;13.80;99.90;;;;;;4996913;28;20515;-87
2022/07/18 01:57:36;;;;;;;3.40;1.58;;;13.80;99.90;;;;;;4995657;28;20187;-87
2022/07/18 02:00:03;;;;;;;3.97;1.55;;;13.80;99.90;;;;;;4996582;28;20699;-88
2022/07/18 02:02:29;;;;;;;3.60;1.58;;;13.70;99.90;;;;;;4995226;28;20242;-87
2022/07/18 02:05:01;;;;;;;3.88;1.40;;;13.60;99.90;;;;;;4995366;28;20180;-87
2022/07/18 02:07:28;;;;;;;2.45;1.65;;;13.60;99.90;;;;;;5001255;28;20525;-87
2022/07/18 02:09:55;;;;;;;2.33;1.30;;;13.50;99.90;;;;;;5015736;28;20182;-88
2022/07/18 02:12:21;;;;;;;3.15;1.42;;;13.60;99.90;;;;;;5014650;28;20293;-87
2022/07/18 02:14:47;;;;;;;3.55;1.60;;;13.60;99.90;;;;;;5015986;28;20291;-88
2022/07/18 02:17:13;;;;;;;4.10;1.92;;;13.60;99.90;;;;;;5014603;28;20190;-87
2022/07/18 02:19:39;;;;;;;5.70;1.55;;;13.60;99.90;;;;;;5014425;28;20629;-87
2022/07/18 02:22:08;;;;;;;4.15;1.70;;;13.60;99.90;;;;;;5014535;28;20171;-88
2022/07/18 02:24:33;;;;;;;3.58;1.80;;;13.50;99.90;;;;;;5014388;28;20183;-87
2022/07/18 02:27:00;;;;;;;2.50;1.48;;;13.50;99.90;;;;;;5014579;28;20179;-87
2022/07/18 02:29:25;;;;;;;3.85;1.60;;;13.60;99.90;;;;;;5015406;28;20266;-87
2022/07/18 02:31:51;;;;;;;3.33;1.30;;;13.60;99.90;;;;;;5013940;28;20214;-88
2022/07/18 02:34:17;;;;;;;5.03;1.80;;;13.50;99.90;;;;;;5015177;28;20250;-88
2022/07/18 02:36:42;;;;;;;3.42;1.40;;;13.60;99.90;;;;;;4994362;28;20521;-88
2022/07/18 02:39:09;;;;;;;3.95;1.48;;;13.50;99.90;;;;;;4994470;28;20195;-86
2022/07/18 02:41:36;;;;;;;4.63;1.55;;;13.50;99.90;;;;;;4994597;28;20188;-88
2022/07/18 02:44:03;;;;;;;9.65;1.58;;;13.40;99.90;;;;;;4995694;28;20164;-86
2022/07/18 02:46:29;;;;;;;6.68;1.75;;;13.40;99.90;;;;;;4994425;28;20310;-87
2022/07/18 02:48:54;;;;;;;3.20;1.55;;;13.40;99.90;;;;;;4994655;28;20231;-88
2022/07/18 02:51:21;;;;;;;4.22;1.60;;;13.40;99.90;;;;;;4995511;28;20298;-87
2022/07/18 02:53:47;;;;;;;3.80;1.77;;;13.30;99.90;;;;;;4994425;28;20187;-88
2022/07/18 02:56:12;;;;;;;7.57;1.60;;;13.30;99.90;;;;;;4994247;28;20180;-87
2022/07/18 02:58:38;;;;;;;3.97;1.52;;;13.30;99.90;;;;;;4994363;28;20547;-87
2022/07/18 03:01:04;;;;;;;3.40;1.52;;;13.20;99.90;;;;;;4994212;28;20175;-87
2022/07/18 03:03:29;;;;;;;3.50;1.73;;;13.20;99.90;;;;;;4994127;28;20211;-87
2022/07/18 03:05:55;;;;;;;6.60;1.98;;;13.10;99.90;;;;;;4994248;28;20183;-87
2022/07/18 03:08:20;;;;;;;2.88;1.42;;;13.10;99.90;;;;;;4981990;28;20192;-87
2022/07/18 03:10:48;;;;;;;5.20;1.73;;;13.10;99.90;;;;;;4974711;28;20647;-87
2022/07/18 03:13:14;;;;;;;3.53;1.80;;;13.10;99.90;;;;;;4974755;28;20616;-87
2022/07/18 03:15:40;;;;;;;4.57;1.58;;;13.00;99.90;;;;;;4974238;28;20220;-88
2022/07/18 03:18:06;;;;;;;4.90;1.48;;;13.10;99.90;;;;;;4975845;28;20208;-87
2022/07/18 03:20:33;;;;;;;3.53;1.33;;;13.20;99.90;;;;;;4974622;28;20534;-88
2022/07/18 03:22:58;;;;;;;2.72;1.55;;;13.10;99.90;;;;;;4975454;28;20196;-88
2022/07/18 03:25:24;;;;;;;3.08;1.60;;;13.10;99.90;;;;;;4974472;28;20185;-88
2022/07/18 03:27:50;;;;;;;3.80;1.50;;;13.00;99.90;;;;;;4974384;28;20185;-87
2022/07/18 03:30:16;;;;;;;3.20;1.60;;;13.00;99.90;;;;;;4974313;28;20790;-87
2022/07/18 03:32:43;;;;;;;1.80;1.30;;;13.10;99.90;;;;;;4976124;28;20199;-88
2022/07/18 03:35:08;;;;;;;7.35;1.65;;;13.00;99.90;;;;;;4978643;28;20177;-88
2022/07/18 03:37:34;;;;;;;2.50;1.73;;;12.90;99.90;;;;;;4984143;28;20330;-88
2022/07/18 03:39:59;;;;;;;3.85;1.67;;;12.90;99.90;;;;;;4999053;28;20172;-87
2022/07/18 03:42:26;;;;;;;4.63;1.67;;;12.90;99.90;;;;;;4997977;28;20175;-87
2022/07/18 03:44:52;;;;;;;3.35;1.70;;;12.90;99.90;;;;;;4997810;28;20207;-88
2022/07/18 03:47:18;;;;;;;3.72;1.83;;;12.90;99.90;;;;;;4998095;28;20211;-88
2022/07/18 03:49:43;;;;;;;4.25;1.55;;;13.00;99.90;;;;;;4997925;28;20607;-88
2022/07/18 03:52:10;;;;;;;6.22;1.90;;;12.90;99.90;;;;;;4999058;28;20218;-88
2022/07/18 03:54:35;;;;;;;3.25;1.67;;;13.00;99.90;;;;;;4997671;28;20678;-88
2022/07/18 03:57:01;;;;;;;2.25;1.50;;;13.10;99.90;;;;;;4997490;28;20230;-88
2022/07/18 03:59:27;;;;;;;2.42;1.60;;;13.10;99.90;;;;;;4998857;28;20186;-88
2022/07/18 04:01:52;;;;;;;4.20;1.80;;;13.00;99.90;;;;;;4997936;28;20211;-88
2022/07/18 04:04:18;;;;;;;4.20;1.63;;;13.10;99.90;;;;;;4997724;28;20176;-88
2022/07/18 04:06:44;;;;;;;4.75;1.95;;;13.10;99.90;;;;;;4997860;28;20184;-88
2022/07/18 04:09:09;;;;;;;8.32;1.85;;;13.00;99.90;;;;;;4978989;28;20185;-88
2022/07/18 04:11:36;;;;;;;4.70;1.80;;;13.10;99.90;;;;;;4978983;28;20275;-86
2022/07/18 04:14:02;;;;;;;2.60;1.52;;;13.10;99.90;;;;;;4979073;28;20169;-87
2022/07/18 04:16:27;;;;;;;7.63;1.80;;;13.20;99.90;;;;;;4977989;28;20223;-88
2022/07/18 04:18:53;;;;;;;5.07;1.70;;;13.20;99.90;;;;;;4977691;28;20188;-87
2022/07/18 04:21:19;;;;;;;4.80;1.65;;;13.10;99.90;;;;;;4977758;28;20180;-87
2022/07/18 04:23:45;;;;;;;4.40;1.85;;;13.20;99.90;;;;;;4977490;28;20176;-88
2022/07/18 04:26:10;;;;;;;3.78;1.60;;;13.20;99.90;;;;;;4977423;28;20185;-87
2022/07/18 04:28:36;;;;;;;4.15;1.73;;;13.20;99.90;;;;;;4978754;28;20172;-87
2022/07/18 04:31:02;;;;;;;4.75;1.40;;;13.20;99.90;;;;;;4977432;28;20208;-87
2022/07/18 04:33:28;;;;;;;2.47;1.70;;;13.20;99.90;;;;;;4977444;28;20177;-87
2022/07/18 04:35:54;;;;;;;5.68;2.08;;;13.30;99.90;;;;;;4977387;28;20185;-87
2022/07/18 04:38:19;;;;;;;6.57;1.90;;;13.30;99.90;;;;;;4988804;28;20236;-87
2022/07/18 04:40:45;;;;;;;3.33;1.60;;;13.40;99.90;;;;;;4996666;28;20196;-87
2022/07/18 04:43:11;;;;;;;2.38;1.48;;;13.50;99.90;;;;;;4996284;28;20188;-88
2022/07/18 04:45:37;;;;;;;3.00;1.70;;;13.60;99.90;;;;;;4996818;28;20172;-88
2022/07/18 04:48:06;;;;;;;4.60;1.65;;;13.70;99.90;;;;;;4997752;28;20427;-87
2022/07/18 04:50:32;;;;;;;2.83;1.50;;;13.80;99.90;;;;;;4996571;28;20214;-88
2022/07/18 04:52:58;;;;;;;3.58;1.77;;;14.00;99.90;;;;;;4996632;28;20216;-87
2022/07/18 04:55:25;;;;;;;2.85;1.45;;;14.10;99.90;;;;;;4996167;28;20195;-87
2022/07/18 04:57:52;;;;;;;3.97;1.77;;;14.30;99.90;;;;;;4996277;28;20183;-87
2022/07/18 05:00:20;;;;;;;2.83;1.50;;;14.40;99.90;;;;;;4996427;28;20198;-88
2022/07/18 05:02:50;;;;;;;3.22;1.50;;;14.50;99.90;;;;;;4997603;28;20619;-87
2022/07/18 05:05:17;;;;;;;5.60;1.80;;;14.60;99.90;;;;;;4996293;28;20207;-87
2022/07/18 05:07:45;;;;;;;5.18;1.75;;;14.80;99.90;;;;;;4995671;28;20598;-86
2022/07/18 05:10:12;;;;;;;2.10;1.35;;;15.00;99.90;;;;;;4996961;28;20183;-88
2022/07/18 05:12:42;;;;;;;3.08;2.08;;;15.10;99.90;;;;;;4996062;28;20190;-88
2022/07/18 05:15:10;;;;;;;3.25;1.50;;;15.30;99.90;;;;;;4995825;28;20244;-88
2022/07/18 05:17:36;;;;;;;3.80;1.13;;;15.40;99.90;;;;;;4997078;28;20172;-87
2022/07/18 05:20:04;;;;;;;3.08;1.48;;;15.50;99.90;;;;;;4995905;28;20517;-86
2022/07/18 05:22:32;;;;;;;4.45;1.50;;;15.60;99.90;;;;;;4992462;28;20187;-86
2022/07/18 05:24:59;;;;;;;3.35;1.20;;;15.70;99.90;;;;;;4995837;28;20180;-87
2022/07/18 05:27:25;;;;;;;2.25;1.30;;;15.80;99.90;;;;;;4997551;28;20254;-86
2022/07/18 05:29:50;;;;;;;4.03;1.55;;;15.80;99.90;;;;;;5006753;28;20637;-86
2022/07/18 05:32:16;;;;;;;3.25;1.30;;;15.90;99.90;;;;;;5013983;28;20214;-86
2022/07/18 05:34:42;;;;;;;1.95;1.20;;;16.00;99.90;;;;;;5014763;28;20182;-86
2022/07/18 05:37:07;;;;;;;3.90;1.40;;;16.00;99.90;;;;;;5012512;28;20596;-87
2022/07/18 05:39:33;;;;;;;2.80;1.63;;;16.10;99.90;;;;;;4995798;28;20223;-87
2022/07/18 05:41:59;;;;;;;2.90;1.35;;;16.10;99.90;;;;;;4995231;28;20176;-87
2022/07/18 05:44:24;;;;;;;2.60;1.02;;;16.20;99.90;;;;;;5002457;28;20198;-86
2022/07/18 05:46:50;;;;;;;1.55;1.10;;;16.30;99.90;;;;;;5015522;28;20191;-87
2022/07/18 05:49:16;;;;;;;4.18;1.30;;;16.30;99.90;;;;;;5014557;28;20175;-86
2022/07/18 05:51:42;;;;;;;3.78;1.50;;;16.40;99.90;;;;;;5014486;28;20206;-86
2022/07/18 05:54:08;;;;;;;1.88;1.23;;;16.50;99.90;;;;;;5014275;28;20175;-87
2022/07/18 05:56:34;;;;;;;3.50;1.50;;;16.50;99.90;;;;;;5014197;28;20167;-86
2022/07/18 05:59:00;;;;;;;5.93;1.30;;;16.50;99.90;;;;;;4997549;28;20184;-87
2022/07/18 06:01:25;;;;;;;2.97;1.33;;;16.60;99.90;;;;;;4994672;28;20251;-86
2022/07/18 06:03:51;;;;;;;3.35;1.45;;;16.70;99.90;;;;;;4994192;28;20274;-87
2022/07/18 06:06:18;;;;;;;3.53;1.77;;;16.80;99.90;;;;;;4994095;28;20610;-86
2022/07/18 06:08:45;;;;;;;3.28;1.50;;;16.90;99.90;;;;;;4993467;28;20622;-87
2022/07/18 06:11:11;;;;;;;3.58;1.73;;;16.90;99.90;;;;;;4992324;28;20385;-88
2022/07/18 06:13:38;;;;;;;5.32;2.20;;;17.00;99.90;;;;;;4994976;28;20215;-85
2022/07/18 06:16:05;;;;;;;3.67;1.90;;;17.10;99.90;;;;;;4994308;28;20191;-87
2022/07/18 06:18:30;;;;;;;4.75;1.65;;;17.30;99.90;;;;;;4994234;28;20190;-85
2022/07/18 06:20:56;;;;;;;3.80;1.80;;;17.40;99.90;;;;;;4994265;28;20517;-89
2022/07/18 06:23:23;;;;;;;3.22;1.50;;;17.50;99.70;;;;;;4994180;28;20215;-86
2022/07/18 06:25:48;;;;;;;4.07;1.60;;;17.60;99.60;;;;;;4994070;28;20187;-87
2022/07/18 06:28:14;;;;;;;3.97;1.48;;;17.70;99.30;;;;;;4995804;28;20172;-87
2022/07/18 06:30:40;;;;;;;5.95;1.50;;;17.90;99.50;;;;;;4995510;28;20200;-89
2022/07/18 06:33:07;;;;;;;3.08;1.85;;;18.00;99.30;;;;;;4993949;28;20603;-85
2022/07/18 06:35:33;;;;;;;4.65;1.40;;;18.20;98.30;;;;;;4995109;28;20153;-87
2022/07/18 06:37:59;;;;;;;5.10;1.80;;;18.30;98.10;;;;;;5003286;28;20284;-89
2022/07/18 06:40:25;;;;;;;2.15;1.60;;;18.50;98.10;;;;;;5013500;28;20175;-86
2022/07/18 06:42:52;;;;;;;4.00;1.35;;;18.80;97.80;;;;;;5013661;28;20179;-87
2022/07/18 06:45:18;;;;;;;2.63;1.50;;;19.00;97.20;;;;;;5013754;28;20171;-87
2022/07/18 06:47:44;;;;;;;4.05;1.27;;;19.30;96.40;;;;;;5006814;28;20186;-87
2022/07/18 06:50:12;;;;;;;3.65;1.48;;;19.60;96.50;;;;;;4995031;28;20254;-87
2022/07/18 06:52:40;;;;;;;2.88;1.50;;;19.80;95.90;;;;;;4993450;28;20224;-85
2022/07/18 06:55:06;;;;;;;4.72;1.30;;;19.90;95.40;;;;;;4993007;28;20187;-86
2022/07/18 06:57:32;;;;;;;3.17;1.33;;;19.90;95.20;;;;;;4994002;28;20195;-88
2022/07/18 06:59:57;;;;;;;3.45;1.50;;;20.10;94.60;;;;;;4994057;28;20515;-88
2022/07/18 07:02:23;;;;;;;3.05;1.48;;;20.10;93.90;;;;;;4992975;28;20282;-86
2022/07/18 07:04:50;;;;;;;3.85;1.50;;;20.20;94.20;;;;;;4993609;28;20188;-86
2022/07/18 07:07:16;;;;;;;5.07;1.20;;;20.20;93.60;;;;;;4993581;28;20565;-87
2022/07/18 07:09:42;;;;;;;3.10;1.13;;;20.20;93.60;;;;;;4993559;28;20187;-87
2022/07/18 07:12:07;;;;;;;1.85;1.10;;;20.30;93.50;;;;;;4993674;28;20666;-86
2022/07/18 07:14:33;;;;;;;2.10;1.23;;;20.30;94.00;;;;;;4993308;28;20230;-85
2022/07/18 07:16:58;;;;;;;2.88;1.23;;;20.30;94.20;;;;;;4993307;28;20283;-84
2022/07/18 07:19:24;;;;;;;4.47;1.30;;;20.40;93.80;;;;;;4993104;28;20187;-87
2022/07/18 07:21:50;;;;;;;3.33;1.27;;;20.60;93.50;;;;;;4993480;28;20275;-88
2022/07/18 07:24:17;;;;;;;2.28;1.10;;;20.80;93.50;;;;;;4992707;28;20334;-87
2022/07/18 07:26:43;;;;;;;6.93;1.50;;;21.00;93.70;;;;;;4998318;28;20205;-86
2022/07/18 07:29:09;;;;;;;5.35;1.10;;;21.10;92.50;;;;;;5014361;28;20176;-86
2022/07/18 07:31:34;;;;;;;3.28;1.17;;;21.20;92.20;;;;;;5006422;28;20266;-87
2022/07/18 07:34:01;;;;;;;3.95;1.42;;;21.20;92.40;;;;;;4994591;28;20802;-91
2022/07/18 07:36:26;;;;;;;3.00;1.00;;;21.30;91.60;;;;;;4993759;28;20568;-87
2022/07/18 07:38:52;;;;;;;3.28;1.42;;;21.20;91.20;;;;;;4994007;28;20239;-88
2022/07/18 07:41:18;;;;;;;2.92;1.30;;;21.30;91.70;;;;;;4994812;28;20258;-89
2022/07/18 07:43:45;;;;;;;5.38;1.08;;;21.40;91.70;;;;;;4993537;28;20511;-88
2022/07/18 07:46:11;;;;;;;5.07;1.13;;;21.50;91.50;;;;;;4994766;28;20172;-89
2022/07/18 07:48:38;;;;;;;2.08;1.17;;;21.60;91.40;;;;;;4994706;28;20513;-88
2022/07/18 07:51:04;;;;;;;5.05;1.30;;;21.70;91.40;;;;;;4993684;28;20243;-88
2022/07/18 07:53:32;;;;;;;6.43;1.48;;;21.90;91.60;;;;;;4993464;28;20187;-88
2022/07/18 07:55:58;;;;;;;1.83;0.90;;;22.00;90.00;;;;;;4994013;28;20530;-88
2022/07/18 07:58:23;;;;;;;6.47;1.17;;;22.10;90.00;;;;;;4993241;28;20188;-85
2022/07/18 08:00:49;;;;;;;3.67;1.13;;;22.20;87.70;;;;;;4995311;28;20242;-89
2022/07/18 08:03:15;;;;;;;4.30;1.10;;;22.20;89.10;;;;;;5013217;28;20187;-88
2022/07/18 08:05:48;;;;;;;3.72;1.00;;;22.20;88.60;;;;;;5013371;28;20182;-88
2022/07/18 08:08:16;;;;;;;2.92;1.25;;;22.20;87.30;;;;;;5001381;28;20195;-87
2022/07/18 08:10:47;;;;;;;4.57;1.63;;;22.30;87.40;;;;;;4997672;28;20213;-86
2022/07/18 08:13:13;;;;;;;4.63;1.10;;;22.30;88.00;;;;;;5009909;28;20184;-88
2022/07/18 08:15:39;;;;;;;4.35;1.20;;;22.30;86.30;;;;;;4993235;28;20207;-90
2022/07/18 08:18:05;;;;;;;5.95;1.23;;;22.40;87.50;;;;;;4994091;28;20263;-88
2022/07/18 08:20:33;;;;;;;4.72;1.10;;;22.40;87.60;;;;;;4998423;28;20196;-88
2022/07/18 08:23:02;;;;;;;3.40;1.10;;;22.40;86.80;;;;;;4997038;28;20262;-88
2022/07/18 08:25:30;;;;;;;2.53;1.23;;;22.50;87.50;;;;;;4998012;28;20242;-91
2022/07/18 08:27:56;;;;;;;4.88;1.35;;;22.70;87.40;;;;;;4996991;28;20223;-88
2022/07/18 08:30:22;;;;;;;3.17;1.30;;;22.90;85.10;;;;;;4997994;28;20204;-87
2022/07/18 08:32:48;;;;;;;2.58;1.17;;;23.00;84.40;;;;;;4996930;28;20179;-88
2022/07/18 08:35:15;;;;;;;6.57;1.20;;;23.20;84.00;;;;;;4996754;28;20207;-89
2022/07/18 08:37:41;;;;;;;5.72;1.10;;;23.30;83.80;;;;;;4996551;28;20240;-87
2022/07/18 08:40:07;;;;;;;5.32;1.27;;;23.40;81.50;;;;;;4998035;28;20360;-87
2022/07/18 08:42:34;;;;;;;3.13;1.23;;;23.60;81.80;;;;;;5007736;28;20218;-88
2022/07/18 08:45:03;;;;;;;3.92;1.70;;;23.70;81.00;;;;;;5016364;28;20190;-88
2022/07/18 08:47:29;;;;;;;1.35;1.00;;;23.80;79.40;;;;;;5017603;28;20179;-90
2022/07/18 08:49:56;;;;;;;3.50;1.30;;;23.90;80.80;;;;;;5016335;28;20195;-87
2022/07/18 08:52:22;;;;;;;2.47;0.98;;;24.00;78.80;;;;;;5017519;28;20215;-89
2022/07/18 08:54:50;;;;;;;4.45;1.20;;;24.20;78.80;;;;;;5015669;28;20182;-88
2022/07/18 08:57:17;;;;;;;3.00;1.15;;;24.30;79.60;;;;;;5016925;28;20187;-86
2022/07/18 08:59:43;;;;;;;6.38;1.23;;;24.30;77.90;;;;;;5017524;28;20187;-92
2022/07/18 09:02:09;;;;;;;1.38;0.93;;;24.40;78.90;;;;;;5016019;28;20209;-88
2022/07/18 09:04:42;;;;;;;4.72;0.82;;;24.50;78.80;;;;;;5005549;28;20615;-88
2022/07/18 09:07:09;;;;;;;1.65;0.88;;;24.70;78.90;;;;;;4995800;28;20180;-89
2022/07/18 09:09:38;;;;;;;3.72;1.00;;;24.70;79.80;;;;;;4995235;28;20607;-89
2022/07/18 09:12:09;;;;;;;3.53;1.00;;;24.70;77.50;;;;;;4996773;28;20211;-88
2022/07/18 09:14:45;;;;;;;3.75;1.20;;;24.70;77.90;;;;;;4995544;28;20175;-87
2022/07/18 09:17:17;;;;;;;1.42;1.00;;;24.70;77.40;;;;;;4995951;28;20178;-88
2022/07/18 09:20:00;;;;;;;2.47;0.90;;;24.80;77.20;;;;;;4995915;28;20179;-90
2022/07/18 09:22:29;;;;;;;3.97;1.30;;;24.90;78.20;;;;;;4996165;28;20290;-89
2022/07/18 09:25:24;;;;;;;2.70;1.20;;;25.00;76.60;;;;;;4996597;28;20172;-87
2022/07/18 09:27:54;;;;;;;1.80;1.25;;;25.00;76.60;;;;;;4993215;28;20199;-91
2022/07/18 09:30:25;;;;;;;4.22;1.50;;;25.10;76.60;;;;;;4994673;28;20210;-90
2022/07/18 09:32:53;;;;;;;4.72;1.55;;;25.20;74.80;;;;;;4995802;28;20275;-90
2022/07/18 09:35:27;;;;;;;2.65;1.08;;;25.40;75.20;;;;;;4995872;28;20176;-89
2022/07/18 09:38:14;;;;;;;2.40;1.13;;;25.50;75.90;;;;;;4993141;28;20266;-93
2022/07/18 09:40:46;;;;;;;3.97;1.40;;;25.60;75.80;;;;;;4976321;28;20212;-89
2022/07/18 09:43:17;;;;;;;2.60;1.23;;;25.60;73.70;;;;;;4977345;28;20631;-90
2022/07/18 09:45:47;;;;;;;5.28;1.35;;;25.70;76.40;;;;;;4976403;28;20172;-88
2022/07/18 09:48:18;;;;;;;2.58;1.38;;;25.60;75.70;;;;;;4976414;28;20192;-89
2022/07/18 09:50:52;;;;;;;1.88;1.10;;;25.60;74.20;;;;;;4976009;28;20208;-89
2022/07/18 09:53:23;;;;;;;2.95;1.45;;;25.60;75.80;;;;;;4979158;28;20649;-89
2022/07/18 09:56:00;;;;;;;4.30;1.20;;;25.60;77.50;;;;;;4995183;28;20172;-88
2022/07/18 09:58:29;;;;;;;1.52;1.10;;;25.60;76.50;;;;;;4995562;28;20184;-88
2022/07/18 10:00:57;;;;;;;2.47;1.17;;;25.70;76.00;;;;;;4996804;28;20665;-89
2022/07/18 10:03:24;;;;;;;1.88;1.20;;;25.70;74.70;;;;;;4995385;28;20599;-90
2022/07/18 10:05:51;;;;;;;2.78;1.17;;;25.80;75.10;;;;;;4995288;28;20194;-91
2022/07/18 10:08:20;;;;;;;4.63;1.60;;;25.90;75.30;;;;;;4986474;28;20234;-90
2022/07/18 10:10:47;;;;;;;2.97;1.42;;;26.00;74.70;;;;;;4994968;28;20242;-90
2022/07/18 10:13:14;;;;;;;2.05;1.10;;;26.20;74.80;;;;;;4996288;28;20696;-89
2022/07/18 10:15:43;;;;;;;3.45;1.50;;;26.40;73.80;;;;;;5014991;28;20189;-92
2022/07/18 10:18:11;;;;;;;1.77;1.10;;;26.50;75.20;;;;;;5016011;28;20174;-89
2022/07/18 10:20:50;;;;;;;3.65;1.30;;;26.60;71.80;;;;;;4994563;28;20559;-90
2022/07/18 10:24:00;;;;;;;2.03;1.20;;;26.60;70.30;;;;;;4995624;28;20238;-88
2022/07/18 10:26:29;;;;;;;3.35;1.60;;;26.60;74.00;;;;;;4939085;29;20187;-90
2022/07/18 10:29:00;;;;;;;3.03;1.42;;;26.80;74.20;;;;;;4984650;28;20205;-89
2022/07/18 10:31:30;;;;;;;1.98;1.50;;;26.90;73.50;;;;;;4976752;28;20276;-88
2022/07/18 10:34:09;;;;;;;2.78;1.67;;;26.90;71.50;;;;;;4976692;28;20215;-89
2022/07/18 10:36:38;;;;;;;3.08;1.38;;;27.00;73.70;;;;;;4975047;28;20203;-88
2022/07/18 10:39:23;;;;;;;2.53;1.27;;;27.00;72.30;;;;;;4992344;28;20258;-88
2022/07/18 10:41:54;;;;;;;2.83;1.35;;;27.10;71.30;;;;;;4994234;28;20638;-88
2022/07/18 10:44:23;;;;;;;2.25;1.25;;;27.20;73.20;;;;;;4994225;28;20635;-89
2022/07/18 10:47:20;;;;;;;3.80;1.35;;;27.20;71.70;;;;;;4994481;28;20180;-89
2022/07/18 10:49:46;;;;;;;1.98;1.10;;;27.30;73.40;;;;;;4994246;28;20259;-89
2022/07/18 10:52:30;;;;;;;3.30;1.30;;;27.40;69.20;;;;;;4994222;28;20294;-93
2022/07/18 10:55:02;;;;;;;2.28;1.40;;;27.50;69.40;;;;;;4993380;28;20183;-90
2022/07/18 10:57:32;;;;;;;3.05;1.35;;;27.50;71.60;;;;;;4994378;28;20175;-89
2022/07/18 11:00:08;;;;;;;2.97;1.20;;;27.60;68.40;;;;;;4995318;28;20168;-91
2022/07/18 11:02:47;;;;;;;2.97;1.17;;;27.60;69.40;;;;;;4994370;28;20174;-90
2022/07/18 11:05:26;;;;;;;3.08;1.23;;;27.60;69.00;;;;;;4994445;28;20190;-88
2022/07/18 11:08:01;;;;;;;1.88;1.30;;;27.70;70.70;;;;;;4995164;28;20180;-92
2022/07/18 11:16:08;;;;;;;2.08;1.50;;;27.80;70.50;;;;;;4995216;28;20265;-92
2022/07/18 11:18:47;;;;;;;3.30;1.52;;;27.80;68.50;;;;;;4995464;28;20196;-89
2022/07/18 11:21:23;;;;;;;2.00;1.50;;;28.10;69.00;;;;;;4994281;28;20215;-90
2022/07/18 11:23:53;;;;;;;2.83;1.00;;;28.20;69.40;;;;;;4995420;28;20175;-89
2022/07/18 11:26:22;;;;;;;2.22;1.15;;;28.30;69.30;;;;;;4993970;28;20168;-89
2022/07/18 11:28:48;;;;;;;2.60;1.30;;;28.40;68.10;;;;;;4993984;28;20175;-88
2022/07/18 11:31:15;;;;;;;2.10;1.30;;;28.50;69.50;;;;;;5004726;28;20586;-88
2022/07/18 11:33:45;;;;;;;2.58;1.40;;;28.50;68.70;;;;;;5013176;28;20273;-89
2022/07/18 11:36:21;;;;;;;1.88;1.35;;;28.50;69.20;;;;;;5013156;28;20667;-88
2022/07/18 11:38:52;;;;;;;2.65;1.10;;;28.70;67.30;;;;;;4997496;28;20238;-88
2022/07/18 11:41:18;;;;;;;1.70;1.08;;;28.60;67.40;;;;;;4993010;28;20168;-89
2022/07/18 11:43:45;;;;;;;5.32;1.40;;;28.70;69.80;;;;;;4993561;28;20187;-89
2022/07/18 11:46:14;;;;;;;2.30;1.10;;;28.70;69.70;;;;;;4992800;28;20293;-85
2022/07/18 11:48:40;;;;;;;1.73;1.23;;;29.00;68.70;;;;;;4993997;28;20184;-86
2022/07/18 11:51:14;;;;;;;3.15;1.38;;;29.20;66.50;;;;;;4993235;28;20211;-86
2022/07/18 11:53:46;;;;;;;1.30;0.93;;;29.20;68.70;;;;;;4994467;28;20183;-87
2022/07/18 11:56:13;;;;;;;1.45;0.95;;;29.30;68.50;;;;;;4997746;28;20198;-85
2022/07/18 11:58:40;;;;;;;2.47;1.00;;;29.20;68.10;;;;;;4996950;28;20171;-86
2022/07/18 12:01:07;;;;;;;2.38;1.10;;;29.20;68.10;;;;;;4993024;28;20183;-88
2022/07/18 12:03:39;;;;;;;3.13;1.45;;;29.30;68.80;;;;;;4977180;28;20263;-88
2022/07/18 12:06:20;;;;;;;4.97;1.05;;;29.30;67.50;;;;;;4977613;28;20623;-86
2022/07/18 12:08:48;;;;;;;1.98;1.30;;;29.40;68.00;;;;;;4996327;28;20187;-86
2022/07/18 12:11:19;;;;;;;5.60;1.20;;;29.40;65.00;;;;;;4996738;28;20226;-84
2022/07/18 12:14:12;;;;;;;2.15;1.35;;;29.50;66.50;;;;;;4996703;28;20176;-85
2022/07/18 12:16:43;;;;;;;1.55;1.10;;;29.60;67.70;;;;;;4997800;28;20202;-86
2022/07/18 12:19:12;;;;;;;2.38;1.15;;;29.70;67.80;;;;;;4998028;28;20254;-86
2022/07/18 12:21:40;;;;;;;2.00;1.40;;;29.90;68.20;;;;;;4996657;28;20179;-85
2022/07/18 12:24:24;;;;;;;2.17;1.20;;;29.90;65.60;;;;;;4996582;28;20607;-86
2022/07/18 12:27:13;;;;;;;2.80;1.20;;;30.00;66.80;;;;;;4996353;28;20190;-87
2022/07/18 12:30:04;;;;;;;3.78;1.30;;;30.00;65.20;;;;;;4988556;28;20271;-88
2022/07/18 12:32:56;;;;;;;3.35;1.48;;;30.00;65.20;;;;;;4977226;28;20226;-87
2022/07/18 12:35:35;;;;;;;1.73;1.20;;;29.90;66.20;;;;;;4976789;28;20191;-85
2022/07/18 12:38:15;;;;;;;3.20;1.40;;;29.90;66.20;;;;;;4986578;28;20235;-85
2022/07/18 12:40:51;;;;;;;3.30;1.40;;;30.10;66.80;;;;;;4997344;28;20163;-85
2022/07/18 12:43:25;;;;;;;3.25;1.52;;;30.30;65.90;;;;;;4995477;28;20641;-88
2022/07/18 12:45:51;;;;;;;2.47;1.35;;;30.50;67.20;;;;;;4995962;28;20183;-83
2022/07/18 12:48:17;;;;;;;1.88;1.30;;;30.40;65.80;;;;;;4997122;28;20175;-87
2022/07/18 12:50:44;;;;;;;3.40;1.50;;;30.30;65.80;;;;;;4995990;28;20185;-84
2022/07/18 12:53:11;;;;;;;3.03;1.52;;;30.20;65.90;;;;;;4996872;28;20176;-85
2022/07/18 12:55:36;;;;;;;2.72;1.70;;;30.20;66.10;;;;;;4996791;28;20172;-85
2022/07/18 12:58:03;;;;;;;4.85;1.60;;;30.20;66.80;;;;;;4995796;28;20187;-88
2022/07/18 13:00:30;;;;;;;2.70;1.60;;;30.20;66.00;;;;;;4995669;28;20183;-86